Time;durP1;ratioP1;P1;durP2;ratioP2;P2;SDS_P1;SDS_P2;PMS_P1;PMS_P2;Temp;Humidity;BMP_temperature;BMP_pressure;BME280_temperature;BME280_humidity;BME280_pressure;Samples;Min_cycle;Max_cycle;Signal;HPM_P1;HPM_P2
2021/06/24 00:00:09;;;;;;;2.50;2.30;;;;;;;18.52;72.34;101403.53;5086961;28;20205;-71
2021/06/24 00:02:38;;;;;;;2.40;2.20;;;;;;;18.63;71.53;101416.16;5085142;28;20735;-70
2021/06/24 00:05:09;;;;;;;5.07;2.23;;;;;;;18.64;71.95;101413.31;5104365;28;20212;-70
2021/06/24 00:07:37;;;;;;;4.33;2.40;;;;;;;18.65;72.24;101423.19;5091383;28;20201;-70
2021/06/24 00:10:06;;;;;;;2.73;2.10;;;;;;;18.63;72.75;101418.88;5087959;28;20189;-71
2021/06/24 00:12:34;;;;;;;2.13;1.93;;;;;;;18.60;72.95;101420.00;5088768;28;20281;-70
2021/06/24 00:15:05;;;;;;;2.83;2.17;;;;;;;18.61;72.90;101419.00;5087768;28;20197;-70
2021/06/24 00:17:33;;;;;;;3.60;2.43;;;;;;;18.60;72.91;101412.69;5089246;28;20675;-71
2021/06/24 00:20:01;;;;;;;2.13;1.93;;;;;;;18.60;72.33;101409.13;5088447;28;20204;-71
2021/06/24 00:22:29;;;;;;;2.23;2.03;;;;;;;18.57;73.10;101409.41;5089474;28;20208;-70
2021/06/24 00:24:59;;;;;;;3.00;2.37;;;;;;;18.56;72.35;101407.69;5089851;28;20705;-70
2021/06/24 00:27:30;;;;;;;5.00;2.20;;;;;;;18.61;72.41;101419.84;5089216;28;20250;-70
2021/06/24 00:29:58;;;;;;;2.70;2.27;;;;;;;18.60;72.59;101423.59;5088134;28;20681;-71
2021/06/24 00:32:28;;;;;;;2.63;2.30;;;;;;;18.62;73.27;101418.03;5085582;28;20262;-71
2021/06/24 00:35:01;;;;;;;2.73;2.30;;;;;;;18.63;73.09;101417.03;5073917;28;20201;-71
2021/06/24 00:37:30;;;;;;;4.53;2.50;;;;;;;18.65;72.42;101414.16;5090418;28;20223;-71
2021/06/24 00:39:59;;;;;;;2.50;2.30;;;;;;;18.64;72.50;101413.31;5089148;28;20605;-71
2021/06/24 00:42:29;;;;;;;3.00;2.40;;;;;;;18.68;72.14;101414.78;5088756;28;20196;-71
2021/06/24 00:44:57;;;;;;;2.27;2.07;;;;;;;18.70;72.21;101410.06;5091149;28;20215;-71
2021/06/24 00:47:27;;;;;;;2.63;2.40;;;;;;;18.73;72.16;101423.38;5104517;28;20201;-71
2021/06/24 00:49:56;;;;;;;2.73;2.50;;;;;;;18.74;71.78;101422.38;5084683;28;20636;-71
2021/06/24 00:52:24;;;;;;;2.30;2.10;;;;;;;18.74;71.93;101425.09;5103830;28;20779;-71
2021/06/24 00:54:52;;;;;;;2.30;2.10;;;;;;;18.72;72.16;101418.06;5086672;28;20299;-70
2021/06/24 00:57:21;;;;;;;2.33;2.13;;;;;;;18.70;72.50;101418.22;5088840;28;20193;-71
2021/06/24 00:59:49;;;;;;;2.47;2.27;;;;;;;18.60;72.41;101403.66;5087424;28;20193;-70
2021/06/24 01:02:18;;;;;;;2.10;1.90;;;;;;;18.69;72.39;101415.63;5084853;28;20197;-71
2021/06/24 01:04:48;;;;;;;2.83;2.27;;;;;;;18.63;73.22;101406.16;5102275;28;20216;-71
2021/06/24 01:07:17;;;;;;;2.77;2.10;;;;;;;18.68;72.81;101414.78;5084719;28;20220;-71
2021/06/24 01:10:04;;;;;;;2.87;2.57;;;;;;;18.67;72.92;101409.44;5086300;28;20639;-71
2021/06/24 01:12:35;;;;;;;2.67;2.30;;;;;;;18.66;73.14;101408.59;5069766;28;20714;-70
2021/06/24 01:15:05;;;;;;;3.20;2.33;;;;;;;18.67;72.96;101413.03;5100115;28;20635;-71
2021/06/24 01:17:33;;;;;;;3.10;2.30;;;;;;;18.65;73.27;101420.47;5086192;28;20243;-71
2021/06/24 01:20:06;;;;;;;2.90;2.57;;;;;;;18.60;74.15;101420.00;5085942;28;20200;-71
2021/06/24 01:22:35;;;;;;;2.57;2.20;;;;;;;18.58;74.08;101414.69;5103341;28;20200;-71
2021/06/24 01:25:08;;;;;;;2.70;2.30;;;;;;;18.63;73.78;101422.47;5091750;28;20235;-71
2021/06/24 01:27:39;;;;;;;4.50;2.20;;;;;;;18.64;73.84;101410.59;5096240;27;20238;-71
2021/06/24 01:30:09;;;;;;;2.40;2.20;;;;;;;18.48;73.01;101389.34;5094927;28;20204;-71
2021/06/24 01:32:43;;;;;;;2.53;2.33;;;;;;;18.70;72.99;101417.34;5083960;28;20227;-71
2021/06/24 01:35:13;;;;;;;3.13;2.43;;;;;;;18.68;73.55;101413.91;5086126;28;20201;-71
2021/06/24 01:37:43;;;;;;;5.37;2.20;;;;;;;18.66;73.00;101411.31;5084487;28;20228;-71
2021/06/24 01:40:14;;;;;;;3.00;2.50;;;;;;;18.61;73.35;101397.22;5085737;28;20659;-71
2021/06/24 01:42:42;;;;;;;4.00;2.20;;;;;;;18.65;73.56;101406.88;5086440;28;20395;-71
2021/06/24 01:45:16;;;;;;;3.77;2.20;;;;;;;18.68;73.09;101417.50;5086027;28;20707;-71
2021/06/24 01:47:47;;;;;;;2.20;2.00;;;;;;;18.63;73.17;101397.97;5089006;28;20200;-71
2021/06/24 01:50:16;;;;;;;2.83;2.10;;;;;;;18.65;72.56;101398.69;5083373;28;20732;-71
2021/06/24 01:52:45;;;;;;;2.23;1.93;;;;;;;18.71;71.99;101402.75;5086622;28;20212;-71
2021/06/24 01:55:18;;;;;;;3.03;2.33;;;;;;;18.74;72.27;101408.78;5091501;28;20500;-71
2021/06/24 01:57:56;;;;;;;2.93;2.20;;;;;;;18.77;71.43;101403.03;5086658;28;20265;-70
2021/06/24 02:00:43;;;;;;;2.90;2.60;;;;;;;18.70;72.10;101401.88;5089113;28;20900;-71
2021/06/24 02:03:20;;;;;;;2.60;2.40;;;;;;;18.71;72.68;101408.19;5084601;28;20203;-71
2021/06/24 02:05:51;;;;;;;3.57;2.50;;;;;;;18.68;73.50;101412.06;5086396;28;20224;-71
2021/06/24 02:08:21;;;;;;;4.03;2.90;;;;;;;18.63;73.24;101408.00;5083847;28;20690;-71
2021/06/24 02:11:06;;;;;;;2.77;2.10;;;;;;;18.66;73.84;101416.75;5070221;28;20189;-71
2021/06/24 02:13:38;;;;;;;2.77;2.50;;;;;;;18.66;74.00;101419.47;5086165;28;20637;-71
2021/06/24 02:16:08;;;;;;;2.57;2.23;;;;;;;18.61;74.07;101402.66;5086622;28;20241;-71
2021/06/24 02:18:38;;;;;;;2.87;2.57;;;;;;;18.67;73.89;101418.47;5087184;28;20299;-71
2021/06/24 02:21:12;;;;;;;3.20;2.80;;;;;;;18.64;73.92;101407.88;5083659;28;20291;-71
2021/06/24 02:23:47;;;;;;;3.47;2.57;;;;;;;18.71;74.14;101417.22;5074740;28;20560;-71
2021/06/24 02:26:27;;;;;;;2.77;2.50;;;;;;;18.70;74.54;101415.50;5086098;28;20181;-72
2021/06/24 02:29:22;;;;;;;2.87;2.60;;;;;;;18.69;73.98;101405.63;5079486;28;20292;-72
2021/06/24 02:31:58;;;;;;;3.47;2.67;;;;;;;18.71;74.41;101414.50;5073676;28;20197;-71
2021/06/24 02:34:47;;;;;;;2.67;2.37;;;;;;;18.71;74.06;101411.78;5086266;28;20292;-72
2021/06/24 02:37:32;;;;;;;2.97;2.67;;;;;;;18.77;73.46;101411.19;5097886;28;20285;-72
2021/06/24 02:40:30;;;;;;;2.90;2.40;;;;;;;18.82;73.90;101422.53;5081436;28;20201;-71
2021/06/24 02:43:02;;;;;;;4.23;2.90;;;;;;;18.86;73.46;101429.41;5087274;28;20196;-71
2021/06/24 02:45:42;;;;;;;3.83;2.80;;;;;;;18.72;73.81;101399.03;5084600;28;20296;-71
2021/06/24 02:48:18;;;;;;;2.97;2.60;;;;;;;18.92;74.56;101438.88;5087169;28;20221;-71
2021/06/24 02:50:47;;;;;;;3.00;2.70;;;;;;;18.94;74.18;101442.31;5087996;28;20701;-70
2021/06/24 02:53:16;;;;;;;3.80;3.03;;;;;;;18.99;74.50;101436.47;5086662;28;20211;-71
2021/06/24 02:55:44;;;;;;;3.03;2.73;;;;;;;19.01;74.05;101431.75;5087272;28;20184;-70
2021/06/24 02:58:17;;;;;;;3.90;2.97;;;;;;;19.05;73.86;101436.75;5086922;28;20549;-70
2021/06/24 03:01:01;;;;;;;3.17;2.67;;;;;;;19.02;74.81;101428.88;5085659;28;20203;-71
2021/06/24 03:03:47;;;;;;;3.23;2.77;;;;;;;18.89;75.97;101429.13;5087343;28;20203;-71
2021/06/24 03:06:22;;;;;;;3.60;3.10;;;;;;;18.91;75.82;101427.13;5085063;28;20233;-71
2021/06/24 03:08:52;;;;;;;3.83;3.10;;;;;;;18.85;76.54;101424.09;5087157;28;20219;-71
2021/06/24 03:11:30;;;;;;;3.83;2.73;;;;;;;18.88;76.91;101429.25;5099745;28;20277;-71
2021/06/24 03:14:04;;;;;;;3.90;2.90;;;;;;;18.96;76.14;101439.44;5083819;28;20288;-71
2021/06/24 03:16:38;;;;;;;3.87;3.13;;;;;;;19.03;75.87;101446.06;5082028;28;20592;-71
2021/06/24 03:19:08;;;;;;;2.90;2.60;;;;;;;19.08;76.09;101444.63;5084994;28;20883;-70
2021/06/24 03:21:44;;;;;;;3.83;2.90;;;;;;;19.12;75.18;101445.22;5077608;28;20203;-70
2021/06/24 03:24:12;;;;;;;3.63;2.70;;;;;;;19.10;75.37;101430.88;5086466;28;20263;-70
2021/06/24 03:26:41;;;;;;;3.87;2.80;;;;;;;19.24;74.61;101449.50;5084824;28;20323;-71
2021/06/24 03:29:12;;;;;;;4.70;2.80;;;;;;;19.30;74.05;101451.69;5081474;28;20792;-71
2021/06/24 03:31:47;;;;;;;2.50;2.30;;;;;;;19.35;74.11;101457.56;5099578;28;20235;-71
2021/06/24 03:34:19;;;;;;;4.10;2.93;;;;;;;19.24;74.99;101430.44;5085404;28;20220;-71
2021/06/24 03:36:49;;;;;;;2.67;2.40;;;;;;;19.40;74.39;101449.81;5083665;28;20659;-70
2021/06/24 03:39:21;;;;;;;3.30;2.40;;;;;;;19.43;74.53;101448.66;5078897;28;20652;-70
2021/06/24 03:41:49;;;;;;;3.13;2.77;;;;;;;19.52;74.71;101451.38;5083097;28;20204;-71
2021/06/24 03:44:19;;;;;;;5.53;2.63;;;;;;;19.58;74.83;101449.09;5082333;28;20193;-71
2021/06/24 03:46:47;;;;;;;3.17;2.70;;;;;;;19.60;74.40;101441.66;5084259;28;20221;-70
2021/06/24 03:49:20;;;;;;;4.83;2.87;;;;;;;19.46;75.42;101421.97;5083030;28;20516;-72
2021/06/24 03:51:49;;;;;;;4.07;3.00;;;;;;;19.62;74.95;101439.66;5087458;28;20253;-71
2021/06/24 03:54:17;;;;;;;3.67;2.93;;;;;;;19.59;75.61;101443.50;5089983;28;20197;-71
2021/06/24 03:56:46;;;;;;;3.33;2.70;;;;;;;19.59;75.65;101439.91;5075070;28;20255;-71
2021/06/24 03:59:20;;;;;;;3.47;2.70;;;;;;;19.51;76.58;101440.59;5081675;28;20631;-71
2021/06/24 04:01:54;;;;;;;3.20;2.80;;;;;;;19.41;76.88;101446.06;5104527;28;20299;-71
2021/06/24 04:04:23;;;;;;;3.90;3.07;;;;;;;19.46;77.10;101446.50;5090425;28;20612;-71
2021/06/24 04:06:55;;;;;;;3.90;3.00;;;;;;;19.53;76.68;101436.78;5089445;28;20213;-71
2021/06/24 04:09:23;;;;;;;3.23;2.80;;;;;;;19.63;75.97;101435.91;5089129;28;20232;-71
2021/06/24 04:11:57;;;;;;;3.30;2.93;;;;;;;19.70;75.66;101423.41;5088802;28;20785;-71
2021/06/24 04:14:59;;;;;;;2.93;2.63;;;;;;;19.74;76.41;101419.38;5075563;28;20707;-71
2021/06/24 04:17:37;;;;;;;2.83;2.43;;;;;;;19.83;75.64;101424.81;5087565;28;20520;-71
2021/06/24 04:20:07;;;;;;;3.90;2.83;;;;;;;19.71;74.54;101390.56;5090746;28;20201;-71
2021/06/24 04:22:39;;;;;;;3.23;2.80;;;;;;;20.04;74.30;101418.31;5087234;28;20207;-71
2021/06/24 04:25:26;;;;;;;4.20;2.97;;;;;;;20.13;73.94;101414.69;5090239;28;20243;-71
2021/06/24 04:27:59;;;;;;;3.53;2.97;;;;;;;20.15;75.06;101408.06;5087633;28;20194;-71
2021/06/24 04:30:30;;;;;;;4.03;3.20;;;;;;;20.08;74.54;101396.03;5078630;28;20212;-71
2021/06/24 04:32:59;;;;;;;4.03;2.97;;;;;;;20.22;74.38;101415.66;5088405;28;20647;-71
2021/06/24 04:35:48;;;;;;;3.30;3.00;;;;;;;20.22;74.96;101402.88;5085942;28;20240;-71
2021/06/24 04:38:19;;;;;;;4.00;3.00;;;;;;;20.14;74.36;101383.66;5080338;28;20668;-70
2021/06/24 04:40:51;;;;;;;5.33;3.07;;;;;;;20.41;73.98;101415.59;5084589;28;20197;-71
2021/06/24 04:43:20;;;;;;;3.93;2.93;;;;;;;20.50;73.38;101422.00;5086983;28;20253;-71
2021/06/24 04:45:50;;;;;;;3.43;3.00;;;;;;;20.56;73.43;101422.28;5087640;28;20448;-71
2021/06/24 04:48:19;;;;;;;3.73;2.90;;;;;;;20.65;72.61;101421.34;5091911;28;20288;-71
2021/06/24 04:50:56;;;;;;;3.60;2.70;;;;;;;20.74;72.52;101425.88;5081641;28;20216;-71
2021/06/24 04:53:24;;;;;;;3.43;2.80;;;;;;;20.66;72.74;101403.97;5083493;28;20197;-71
2021/06/24 04:56:01;;;;;;;4.07;3.03;;;;;;;20.89;72.86;101422.66;5084845;28;20667;-71
2021/06/24 04:58:31;;;;;;;4.50;2.83;;;;;;;20.95;72.38;101411.09;5095689;28;20196;-71
2021/06/24 05:01:19;;;;;;;2.83;2.50;;;;;;;20.93;72.36;101399.47;5083597;28;20262;-71
2021/06/24 05:04:05;;;;;;;3.40;2.90;;;;;;;21.09;71.98;101402.34;5079317;28;20250;-71
2021/06/24 05:06:34;;;;;;;2.97;2.57;;;;;;;21.23;71.88;101390.03;5082809;28;20216;-71
2021/06/24 05:09:04;;;;;;;2.60;2.40;;;;;;;21.33;72.53;101391.69;5077927;28;20192;-71
2021/06/24 05:11:32;;;;;;;3.07;2.67;;;;;;;21.52;73.10;101392.53;5087082;28;20544;-71
2021/06/24 05:14:00;;;;;;;2.70;2.50;;;;;;;21.59;72.25;101385.41;5086767;28;20269;-71
2021/06/24 05:16:30;;;;;;;2.67;2.40;;;;;;;21.70;70.62;101386.00;5079372;28;20228;-71
2021/06/24 05:18:58;;;;;;;5.00;2.53;;;;;;;21.72;70.48;101380.34;5087184;28;20222;-70
2021/06/24 05:21:26;;;;;;;2.90;2.43;;;;;;;21.75;70.10;101377.31;5089210;28;20215;-70
2021/06/24 05:23:54;;;;;;;2.53;2.33;;;;;;;21.70;69.73;101374.19;5088354;28;20305;-70
2021/06/24 05:26:22;;;;;;;3.03;2.30;;;;;;;21.68;69.35;101373.50;5088444;28;20583;-71
2021/06/24 05:28:50;;;;;;;2.83;2.43;;;;;;;21.70;69.76;101376.94;5085869;28;21756;-71
2021/06/24 05:31:18;;;;;;;2.50;2.30;;;;;;;21.71;69.75;101386.84;5087664;28;20400;-70
2021/06/24 05:33:48;;;;;;;2.60;2.30;;;;;;;21.78;70.00;101382.47;5087591;28;20610;-71
2021/06/24 05:36:16;;;;;;;2.50;2.30;;;;;;;21.86;70.04;101382.50;5083382;28;20212;-71
2021/06/24 05:38:44;;;;;;;2.93;2.60;;;;;;;22.12;70.20;101378.94;5086409;28;20246;-71
2021/06/24 05:41:12;;;;;;;2.53;2.33;;;;;;;22.35;67.82;101360.03;5085928;28;20197;-71
2021/06/24 05:43:40;;;;;;;5.60;2.90;;;;;;;22.79;66.42;101394.41;5082614;28;20371;-71
2021/06/24 05:46:08;;;;;;;3.87;2.67;;;;;;;23.07;64.56;101403.22;5087346;28;20223;-71
2021/06/24 05:48:36;;;;;;;2.73;2.40;;;;;;;23.36;64.63;101404.63;5086860;28;20258;-71
2021/06/24 05:51:06;;;;;;;3.10;2.43;;;;;;;23.49;64.58;101392.09;5088131;28;20269;-71
2021/06/24 05:53:34;;;;;;;2.47;2.17;;;;;;;23.81;63.56;101391.25;5087476;28;20196;-71
2021/06/24 05:56:02;;;;;;;2.40;2.17;;;;;;;23.99;62.41;101381.94;5087734;28;20204;-71
2021/06/24 05:58:30;;;;;;;2.27;2.07;;;;;;;24.28;62.18;101392.34;5088040;28;20197;-71
2021/06/24 06:00:59;;;;;;;2.63;2.33;;;;;;;24.25;59.90;101399.03;5088026;28;20779;-71
2021/06/24 06:03:28;;;;;;;3.30;2.30;;;;;;;24.21;60.64;101396.81;5082499;28;20207;-71
2021/06/24 06:05:56;;;;;;;2.30;2.10;;;;;;;24.09;59.64;101388.09;5079329;28;20203;-71
2021/06/24 06:08:27;;;;;;;3.60;2.30;;;;;;;23.39;60.22;101303.69;5085075;28;20608;-71
2021/06/24 06:10:55;;;;;;;2.77;2.40;;;;;;;23.93;60.55;101389.00;5087440;28;20235;-71
2021/06/24 06:13:26;;;;;;;2.97;1.97;;;;;;;23.92;60.41;101389.19;5086754;28;20201;-71
2021/06/24 06:15:54;;;;;;;5.10;1.93;;;;;;;24.21;60.02;101389.44;5087515;28;20204;-71
2021/06/24 06:18:25;;;;;;;1.70;1.60;;;;;;;24.17;59.51;101349.63;5087189;28;20192;-70
2021/06/24 06:20:54;;;;;;;2.03;1.90;;;;;;;24.46;58.85;101379.22;5087519;28;20279;-70
2021/06/24 06:23:26;;;;;;;2.17;1.97;;;;;;;24.48;56.92;101401.00;5086464;28;20692;-70
2021/06/24 06:25:54;;;;;;;2.27;2.00;;;;;;;24.63;58.46;101399.22;5085581;28;20200;-70
2021/06/24 06:28:24;;;;;;;2.10;1.90;;;;;;;25.06;57.51;101406.88;5081473;28;20213;-70
2021/06/24 06:30:54;;;;;;;2.20;2.00;;;;;;;25.52;55.81;101404.13;5081095;28;20203;-70
2021/06/24 06:33:22;;;;;;;2.55;2.35;;;;;;;25.72;56.00;101412.78;5087443;28;20261;-71
2021/06/24 06:35:51;;;;;;;2.92;2.17;;;;;;;26.08;54.86;101417.56;5085624;28;20211;-71
2021/06/24 06:38:20;;;;;;;2.42;2.22;;;;;;;26.25;54.82;101416.31;5087895;28;20254;-71
2021/06/24 06:40:49;;;;;;;2.47;2.25;;;;;;;26.42;53.89;101415.13;5101546;28;20768;-71
2021/06/24 06:43:19;;;;;;;2.40;2.20;;;;;;;26.75;54.20;101417.44;5081479;28;20698;-71
2021/06/24 06:45:51;;;;;;;1.98;1.88;;;;;;;27.03;53.51;101392.78;5081163;28;20235;-71
2021/06/24 06:48:21;;;;;;;1.83;1.70;;;;;;;27.73;52.10;101430.63;5073383;28;20219;-71
2021/06/24 06:50:49;;;;;;;2.10;1.95;;;;;;;27.58;48.68;101421.56;5085782;28;20196;-71
2021/06/24 06:53:18;;;;;;;1.80;1.70;;;;;;;27.73;49.75;101416.81;5084128;28;20200;-71
2021/06/24 06:55:46;;;;;;;1.80;1.70;;;;;;;28.17;49.98;101415.66;5083629;28;20565;-70
2021/06/24 06:58:19;;;;;;;2.08;1.90;;;;;;;28.49;49.43;101412.25;5078706;28;20801;-70
2021/06/24 07:00:47;;;;;;;3.67;2.20;;;;;;;28.66;48.82;101408.06;5083128;28;20211;-69
2021/06/24 07:03:15;;;;;;;2.42;1.90;;;;;;;28.52;46.72;101413.75;5083048;28;20192;-70
2021/06/24 07:05:43;;;;;;;1.70;1.60;;;;;;;29.00;47.55;101412.69;5084613;28;20873;-71
2021/06/24 07:08:11;;;;;;;2.03;1.83;;;;;;;29.41;47.26;101419.16;5084462;28;20672;-70
2021/06/24 07:10:40;;;;;;;3.75;2.03;;;;;;;29.47;45.56;101416.44;5083603;28;20560;-70
2021/06/24 07:13:08;;;;;;;2.20;2.03;;;;;;;29.48;45.08;101407.06;5085255;28;20212;-70
2021/06/24 07:15:38;;;;;;;2.50;2.30;;;;;;;29.92;43.09;101414.69;5082621;28;20212;-70
2021/06/24 07:18:11;;;;;;;2.63;2.30;;;;;;;29.92;42.39;101417.47;5082625;28;20228;-70
2021/06/24 07:20:39;;;;;;;2.85;2.47;;;;;;;29.51;43.20;101406.63;5082761;28;20197;-70
2021/06/24 07:23:07;;;;;;;3.13;2.47;;;;;;;29.36;43.48;101414.22;5085031;28;20207;-70
2021/06/24 07:25:35;;;;;;;6.60;2.20;;;;;;;29.36;43.77;101405.94;5087407;28;20197;-71
2021/06/24 07:28:04;;;;;;;2.50;2.30;;;;;;;28.95;44.34;101406.06;5086927;28;20227;-76
2021/06/24 07:30:32;;;;;;;2.85;1.95;;;;;;;28.90;44.56;101394.78;5084562;28;20226;-76
2021/06/24 07:33:02;;;;;;;4.63;2.20;;;;;;;28.86;44.60;101405.41;5089304;28;20188;-73
2021/06/24 07:35:30;;;;;;;1.90;1.80;;;;;;;28.84;44.51;101398.34;5088169;28;20205;-73
2021/06/24 07:37:59;;;;;;;2.08;1.80;;;;;;;28.58;44.79;101364.03;5088434;28;20575;-73
2021/06/24 07:40:27;;;;;;;1.98;1.80;;;;;;;28.67;44.81;101392.31;5090001;28;20200;-73
2021/06/24 07:42:55;;;;;;;1.85;1.70;;;;;;;28.42;45.01;101384.56;5085901;28;20608;-73
2021/06/24 07:45:24;;;;;;;2.95;1.75;;;;;;;28.00;45.10;101391.09;5086542;28;20887;-73
2021/06/24 07:47:53;;;;;;;1.70;1.60;;;;;;;28.02;45.74;101391.75;5085757;28;20229;-73
2021/06/24 07:50:22;;;;;;;1.80;1.70;;;;;;;27.78;46.64;101387.53;5086270;28;20197;-73
2021/06/24 07:52:54;;;;;;;1.77;1.67;;;;;;;27.43;46.95;101383.84;5086250;28;20312;-73
2021/06/24 07:55:38;;;;;;;2.28;1.58;;;;;;;27.25;46.85;101366.06;5088379;28;20216;-76
2021/06/24 07:58:09;;;;;;;2.10;1.73;;;;;;;27.34;47.29;101389.69;5099314;28;20222;-74
2021/06/24 08:00:46;;;;;;;1.98;1.50;;;;;;;27.17;47.07;101364.28;5089051;28;20205;-74
2021/06/24 08:03:32;;;;;;;1.33;1.23;;;;;;;27.16;47.20;101366.19;5085711;28;20200;-73
2021/06/24 08:06:02;;;;;;;1.83;1.65;;;;;;;27.38;46.28;101386.34;5100442;28;20429;-74
2021/06/24 08:08:31;;;;;;;1.70;1.48;;;;;;;27.07;46.25;101380.31;5085920;28;20215;-75
2021/06/24 08:10:59;;;;;;;1.63;1.52;;;;;;;27.04;46.97;101387.06;5088940;28;20221;-75
2021/06/24 08:13:29;;;;;;;1.55;1.45;;;;;;;27.13;47.01;101393.31;5087320;28;20630;-74
2021/06/24 08:15:58;;;;;;;1.50;1.40;;;;;;;27.62;46.57;101392.53;5089053;28;20209;-74
2021/06/24 08:18:26;;;;;;;1.40;1.30;;;;;;;27.48;46.42;101395.13;5085776;28;20196;-74
2021/06/24 08:20:54;;;;;;;1.40;1.30;;;;;;;27.37;46.11;101411.38;5085649;28;20196;-74
2021/06/24 08:23:24;;;;;;;1.58;1.48;;;;;;;27.06;46.75;101397.91;5086883;28;20564;-74
2021/06/24 08:25:52;;;;;;;1.55;1.45;;;;;;;27.23;46.55;101394.66;5087198;28;20218;-74
2021/06/24 08:28:20;;;;;;;2.88;1.33;;;;;;;27.26;46.59;101396.22;5081927;28;20221;-74
2021/06/24 08:30:48;;;;;;;1.30;1.20;;;;;;;27.22;46.26;101392.09;5084263;28;20220;-74
2021/06/24 08:33:17;;;;;;;1.50;1.25;;;;;;;27.42;46.05;101418.00;5086219;28;20200;-74
2021/06/24 08:35:45;;;;;;;1.52;1.42;;;;;;;27.50;46.00;101422.53;5087566;28;20211;-74
2021/06/24 08:38:15;;;;;;;1.20;1.20;;;;;;;27.54;44.99;101410.88;5088634;28;20290;-73
2021/06/24 08:40:46;;;;;;;1.13;1.13;;;;;;;27.77;44.87;101423.63;5085153;28;20577;-73
2021/06/24 08:43:15;;;;;;;1.27;1.17;;;;;;;27.96;45.34;101422.94;5083881;28;20283;-73
2021/06/24 08:45:43;;;;;;;1.05;1.05;;;;;;;28.38;45.15;101423.88;5083843;28;20197;-73
2021/06/24 08:48:15;;;;;;;1.48;1.35;;;;;;;28.37;44.30;101425.78;5102442;28;20220;-74
2021/06/24 08:50:44;;;;;;;1.75;1.40;;;;;;;28.88;43.09;101407.97;5086096;28;20189;-74
2021/06/24 08:53:13;;;;;;;2.33;1.70;;;;;;;29.12;43.03;101415.72;5084773;28;20208;-73
2021/06/24 08:55:43;;;;;;;1.55;1.38;;;;;;;29.47;41.56;101415.56;5100909;28;20204;-74
2021/06/24 08:58:13;;;;;;;1.40;1.30;;;;;;;29.38;42.24;101379.75;5084797;28;20280;-74
2021/06/24 09:00:42;;;;;;;1.50;1.40;;;;;;;29.96;42.02;101406.81;5083563;28;20200;-74
2021/06/24 09:03:18;;;;;;;1.40;1.30;;;;;;;30.15;39.59;101396.78;5085878;28;20200;-74
2021/06/24 09:05:53;;;;;;;1.48;1.20;;;;;;;30.24;41.38;101381.63;5075661;28;20246;-75
2021/06/24 09:08:43;;;;;;;1.27;1.25;;;;;;;30.69;38.69;101392.81;5083420;28;20243;-75
2021/06/24 09:11:13;;;;;;;1.58;1.48;;;;;;;30.57;40.78;101387.91;5078982;28;20195;-75
2021/06/24 09:13:44;;;;;;;1.30;1.30;;;;;;;31.10;39.75;101379.31;5080745;28;20579;-75
2021/06/24 09:16:21;;;;;;;1.73;1.27;;;;;;;31.45;37.76;101376.09;5086619;28;20232;-75
2021/06/24 09:18:50;;;;;;;2.25;1.30;;;;;;;31.67;39.38;101374.63;5086906;28;20201;-75
2021/06/24 09:21:24;;;;;;;1.50;1.40;;;;;;;31.59;38.01;101366.59;5089001;28;20196;-75
2021/06/24 09:23:53;;;;;;;2.08;1.50;;;;;;;31.60;36.00;101382.19;5087742;28;20197;-75
2021/06/24 09:26:22;;;;;;;2.40;1.27;;;;;;;32.06;38.43;101372.56;5089356;28;20200;-75
2021/06/24 09:28:53;;;;;;;1.73;1.63;;;;;;;32.09;37.05;101374.88;5087783;28;20220;-75
2021/06/24 09:31:26;;;;;;;1.20;1.20;;;;;;;32.06;36.64;101362.28;5085808;28;20721;-75
2021/06/24 09:33:55;;;;;;;1.33;1.23;;;;;;;32.31;37.36;101365.03;5089129;28;20208;-75
2021/06/24 09:36:37;;;;;;;1.50;1.40;;;;;;;32.62;35.16;101365.94;5087444;28;20570;-75
2021/06/24 09:39:08;;;;;;;1.77;1.20;;;;;;;32.81;36.38;101348.16;5088211;28;20214;-75
2021/06/24 09:41:37;;;;;;;1.42;1.33;;;;;;;32.92;35.18;101366.81;5086418;28;20279;-75
2021/06/24 09:44:23;;;;;;;1.40;1.30;;;;;;;32.79;35.17;101361.47;5089057;28;20677;-75
2021/06/24 09:46:52;;;;;;;1.80;1.55;;;;;;;32.95;36.45;101365.50;5087512;28;20810;-75
2021/06/24 09:49:30;;;;;;;1.05;1.05;;;;;;;32.57;35.25;101352.72;5087509;28;20227;-75
2021/06/24 09:51:59;;;;;;;1.38;1.27;;;;;;;33.07;36.09;101354.41;5088351;28;20192;-75
2021/06/24 09:54:47;;;;;;;1.50;1.40;;;;;;;32.84;35.85;101347.69;5087241;28;20208;-75
2021/06/24 09:57:23;;;;;;;1.95;1.35;;;;;;;32.60;35.96;101345.84;5087763;28;20200;-75
2021/06/24 09:59:54;;;;;;;1.55;1.42;;;;;;;32.48;36.54;101342.16;5088162;28;20238;-75
2021/06/24 10:02:22;;;;;;;1.30;1.20;;;;;;;31.74;36.99;101347.66;5088146;28;20228;-75
2021/06/24 10:04:50;;;;;;;1.33;1.30;;;;;;;31.24;37.63;101340.41;5087652;28;20193;-75
2021/06/24 10:07:21;;;;;;;1.40;1.30;;;;;;;31.22;38.09;101354.50;5087776;28;20691;-75
2021/06/24 10:09:51;;;;;;;1.60;1.50;;;;;;;30.98;37.74;101358.91;5087921;28;20226;-75
2021/06/24 10:12:20;;;;;;;1.40;1.30;;;;;;;30.57;37.84;101356.53;5087790;28;20600;-75
2021/06/24 10:14:49;;;;;;;1.30;1.20;;;;;;;30.21;38.30;101343.25;5087301;28;20201;-75
2021/06/24 10:17:19;;;;;;;1.70;1.60;;;;;;;29.90;39.78;101360.56;5085971;28;20277;-75
2021/06/24 10:19:54;;;;;;;1.23;1.23;;;;;;;30.12;38.71;101345.44;5077502;28;20202;-75
2021/06/24 10:22:25;;;;;;;1.70;1.60;;;;;;;30.10;39.44;101363.34;5087253;28;20226;-75
2021/06/24 10:24:56;;;;;;;1.50;1.40;;;;;;;29.89;39.52;101356.94;5075621;28;20204;-75
2021/06/24 10:27:31;;;;;;;1.80;1.60;;;;;;;30.29;40.39;101348.56;5085252;28;20489;-74
2021/06/24 10:30:09;;;;;;;1.60;1.50;;;;;;;30.53;39.85;101352.50;5088071;28;20299;-75
2021/06/24 10:32:40;;;;;;;1.77;1.67;;;;;;;30.62;39.33;101350.38;5084295;28;20192;-74
2021/06/24 10:35:24;;;;;;;1.65;1.55;;;;;;;30.51;38.80;101355.50;5087212;28;20189;-75
2021/06/24 10:37:54;;;;;;;3.17;1.50;;;;;;;30.81;38.92;101357.72;5086384;28;20202;-75
2021/06/24 10:40:24;;;;;;;1.77;1.67;;;;;;;30.97;39.54;101359.16;5088197;28;20203;-75
2021/06/24 10:42:53;;;;;;;1.35;1.35;;;;;;;31.15;37.79;101353.66;5086497;28;20189;-75
2021/06/24 10:45:23;;;;;;;2.10;1.90;;;;;;;30.78;38.35;101352.63;5087084;28;20265;-75
2021/06/24 10:47:55;;;;;;;1.80;1.70;;;;;;;30.83;38.57;101356.44;5086256;28;20731;-75
2021/06/24 10:50:43;;;;;;;2.25;1.50;;;;;;;30.25;39.17;101328.72;5088263;28;20235;-75
2021/06/24 10:53:40;;;;;;;1.70;1.60;;;;;;;30.97;39.75;101351.66;5083177;28;20639;-75
2021/06/24 10:56:34;;;;;;;3.20;1.75;;;;;;;31.33;38.54;101345.44;5079046;28;20694;-75
2021/06/24 10:59:19;;;;;;;2.10;1.90;;;;;;;31.38;38.93;101336.44;5078933;28;20195;-74
2021/06/24 11:01:48;;;;;;;1.70;1.52;;;;;;;31.55;38.32;101331.16;5090428;28;20257;-75
2021/06/24 11:04:39;;;;;;;6.43;1.70;;;;;;;31.47;37.32;101332.28;5091624;28;20260;-75
2021/06/24 11:07:19;;;;;;;1.85;1.70;;;;;;;31.54;38.36;101316.44;5086745;28;20663;-75
2021/06/24 11:10:35;;;;;;;1.70;1.60;;;;;;;31.67;38.11;101321.00;5089417;28;20298;-75
2021/06/24 11:13:08;;;;;;;1.45;1.35;;;;;;;31.31;38.73;101302.31;5090467;28;20196;-74
2021/06/24 11:15:51;;;;;;;1.90;1.80;;;;;;;31.02;38.85;101315.75;5088387;28;20207;-75
2021/06/24 11:18:51;;;;;;;1.70;1.60;;;;;;;31.67;38.41;101319.06;5086931;28;20197;-75
2021/06/24 11:21:55;;;;;;;1.83;1.73;;;;;;;31.56;36.95;101303.16;5088886;28;20205;-75
2021/06/24 11:24:30;;;;;;;1.65;1.55;;;;;;;31.51;38.05;101287.16;5088885;28;20193;-75
2021/06/24 11:27:00;;;;;;;2.25;1.95;;;;;;;31.30;37.93;101297.84;5104478;28;20724;-75
2021/06/24 11:32:17;;;;;;;1.80;1.70;;;;;;;31.11;38.35;101291.34;5087434;28;20200;-75
2021/06/24 11:34:51;;;;;;;2.28;1.75;;;;;;;31.19;39.25;101291.09;5086432;28;20580;-75
2021/06/24 11:37:25;;;;;;;2.20;1.90;;;;;;;31.51;37.87;101267.72;5087075;28;20664;-75
2021/06/24 11:39:55;;;;;;;2.25;2.05;;;;;;;31.35;38.22;101268.31;5088249;28;20621;-75
2021/06/24 11:42:28;;;;;;;1.80;1.70;;;;;;;31.32;38.32;101282.66;5091016;28;20204;-75
2021/06/24 11:44:57;;;;;;;3.72;1.70;;;;;;;31.33;38.63;101276.03;5091258;28;20683;-75
2021/06/24 11:47:27;;;;;;;1.88;1.70;;;;;;;31.59;39.02;101283.25;5090105;28;20204;-74
2021/06/24 12:04:29;;;;;;;6.32;1.75;;;;;;;31.72;38.48;101263.69;5086037;28;20553;-74